AAR456 RPLL-RKSI
Flight info
| Callsign | AAR456 |
|---|---|
| Flight time | 3h 23m |
| Altitude | 32000 |
| Route | CAB2R CAB B462 LAO/N0470F330 M646 POTIB Q14 TNN W4 ANLOT B1 APU DCT DRAKE Q11 WP900/N0462F350 L4 LIPLO Y741 ATOTI Y722 OLMEN OLMEN2E |
| Aircraft | A321/M-SDE3FGHIRWY/LB1 |
Departure
| Time | 2026-05-08 07:50 |
|---|---|
| Airport | Ninoy Aquino International Airport (RPLL) |
Arrival
| Time | 2026-05-08 11:13 |
|---|---|
| Airport | Incheon International Airport (RKSI) |
| Time | Latitude | Longitude | Altitude | Speed | Heading |
|---|---|---|---|---|---|
| 2026-05-08 07:09 | 14.50847 | 121.01303 | 78 ft | 0 kts | 332° |
| 2026-05-08 07:11 | 14.50846 | 121.01303 | 78 ft | 0 kts | 332° |
| 2026-05-08 07:22 | 14.50846 | 121.01304 | 78 ft | 0 kts | 332° |
| 2026-05-08 07:37 | 14.50842 | 121.01306 | 50 ft | 3 kts | 331° |
| 2026-05-08 07:37 | 14.50819 | 121.01321 | 50 ft | 4 kts | 321° |
| 2026-05-08 07:38 | 14.50800 | 121.01340 | 46 ft | 4 kts | 306° |
| 2026-05-08 07:38 | 14.50787 | 121.01363 | 45 ft | 4 kts | 280° |
| 2026-05-08 07:38 | 14.50788 | 121.01388 | 48 ft | 2 kts | 240° |
| 2026-05-08 07:38 | 14.50789 | 121.01389 | 48 ft | 2 kts | 239° |
| 2026-05-08 07:43 | 14.50776 | 121.01367 | 48 ft | 7 kts | 239° |
| 2026-05-08 07:43 | 14.50749 | 121.01322 | 48 ft | 8 kts | 228° |
| 2026-05-08 07:44 | 14.50698 | 121.01326 | 48 ft | 8 kts | 153° |
| 2026-05-08 07:44 | 14.50656 | 121.01300 | 48 ft | 8 kts | 238° |
| 2026-05-08 07:44 | 14.50628 | 121.01248 | 46 ft | 9 kts | 239° |
| 2026-05-08 07:44 | 14.50589 | 121.01179 | 46 ft | 12 kts | 239° |
| 2026-05-08 07:45 | 14.50544 | 121.01100 | 45 ft | 13 kts | 240° |
| 2026-05-08 07:45 | 14.50497 | 121.01014 | 45 ft | 14 kts | 240° |
| 2026-05-08 07:45 | 14.50448 | 121.00925 | 44 ft | 15 kts | 240° |
| 2026-05-08 07:45 | 14.50394 | 121.00827 | 42 ft | 16 kts | 240° |
| 2026-05-08 07:46 | 14.50336 | 121.00722 | 41 ft | 17 kts | 241° |
| 2026-05-08 07:46 | 14.50277 | 121.00613 | 40 ft | 18 kts | 240° |
| 2026-05-08 07:46 | 14.50212 | 121.00500 | 38 ft | 18 kts | 237° |
| 2026-05-08 07:46 | 14.50147 | 121.00385 | 38 ft | 19 kts | 239° |
| 2026-05-08 07:47 | 14.50086 | 121.00277 | 37 ft | 12 kts | 241° |
| 2026-05-08 07:47 | 14.50044 | 121.00198 | 36 ft | 13 kts | 241° |
| 2026-05-08 07:47 | 14.49998 | 121.00114 | 36 ft | 14 kts | 241° |
| 2026-05-08 07:47 | 14.49950 | 121.00030 | 36 ft | 13 kts | 239° |
| 2026-05-08 07:48 | 14.49909 | 120.99969 | 35 ft | 9 kts | 216° |
| 2026-05-08 07:48 | 14.49852 | 120.99979 | 35 ft | 7 kts | 148° |
| 2026-05-08 07:48 | 14.49817 | 121.00002 | 35 ft | 6 kts | 148° |
| 2026-05-08 07:48 | 14.49798 | 121.00039 | 35 ft | 6 kts | 85° |
| 2026-05-08 07:49 | 14.49816 | 121.00075 | 34 ft | 6 kts | 58° |
| 2026-05-08 07:49 | 14.49837 | 121.00109 | 35 ft | 6 kts | 59° |
| 2026-05-08 07:49 | 14.49858 | 121.00148 | 35 ft | 10 kts | 60° |
| 2026-05-08 07:49 | 14.50006 | 121.00416 | 36 ft | 76 kts | 60° |
| 2026-05-08 07:50 | 14.50372 | 121.01074 | 46 ft | 133 kts | 60° |
| 2026-05-08 07:50 | 14.50917 | 121.02051 | 63 ft | 177 kts | 59° |
| 2026-05-08 07:50 | 14.51535 | 121.03120 | 729 ft | 172 kts | 63° |
| 2026-05-08 07:50 | 14.52138 | 121.04194 | 1318 ft | 177 kts | 64° |
| 2026-05-08 07:51 | 14.52779 | 121.05356 | 1635 ft | 195 kts | 62° |
| 2026-05-08 07:51 | 14.53481 | 121.06631 | 1765 ft | 212 kts | 62° |
| 2026-05-08 07:51 | 14.54243 | 121.08019 | 1874 ft | 233 kts | 62° |
| 2026-05-08 07:51 | 14.55081 | 121.09545 | 2042 ft | 253 kts | 62° |
| 2026-05-08 07:52 | 14.55954 | 121.11123 | 2509 ft | 259 kts | 62° |
| 2026-05-08 07:52 | 14.57091 | 121.12570 | 3049 ft | 264 kts | 38° |
| 2026-05-08 07:52 | 14.58755 | 121.13371 | 3527 ft | 270 kts | 12° |
| 2026-05-08 07:52 | 14.60645 | 121.13470 | 4099 ft | 273 kts | 2° |
| 2026-05-08 07:53 | 14.62547 | 121.13475 | 4686 ft | 274 kts | 2° |
| 2026-05-08 07:53 | 14.64456 | 121.13476 | 5270 ft | 274 kts | 2° |
| 2026-05-08 07:53 | 14.66368 | 121.13480 | 5808 ft | 275 kts | 2° |
| 2026-05-08 07:53 | 14.68287 | 121.13488 | 6328 ft | 277 kts | 2° |
| 2026-05-08 07:54 | 14.70217 | 121.13375 | 6831 ft | 281 kts | 351° |
| 2026-05-08 07:54 | 14.72100 | 121.12801 | 7310 ft | 285 kts | 342° |
| 2026-05-08 07:54 | 14.73980 | 121.12117 | 7815 ft | 287 kts | 342° |
| 2026-05-08 07:54 | 14.75872 | 121.11432 | 8309 ft | 289 kts | 343° |
| 2026-05-08 07:55 | 14.77773 | 121.10747 | 8810 ft | 290 kts | 342° |
| 2026-05-08 07:55 | 14.79685 | 121.10062 | 9308 ft | 291 kts | 344° |
| 2026-05-08 07:55 | 14.81598 | 121.09378 | 9811 ft | 292 kts | 344° |
| 2026-05-08 07:55 | 14.83510 | 121.08696 | 10113 ft | 300 kts | 343° |
| 2026-05-08 07:56 | 14.85535 | 121.07984 | 10232 ft | 314 kts | 346° |
| 2026-05-08 07:56 | 14.87721 | 121.07623 | 10351 ft | 325 kts | 356° |
| 2026-05-08 07:56 | 14.90017 | 121.07420 | 10446 ft | 338 kts | 357° |
| 2026-05-08 07:56 | 14.92410 | 121.07216 | 10574 ft | 351 kts | 357° |
| 2026-05-08 07:57 | 14.94882 | 121.07008 | 10686 ft | 363 kts | 357° |
| 2026-05-08 07:57 | 14.97427 | 121.06793 | 10887 ft | 371 kts | 357° |
| 2026-05-08 07:57 | 15.00013 | 121.06575 | 11221 ft | 374 kts | 357° |
| 2026-05-08 07:57 | 15.02622 | 121.06354 | 11579 ft | 377 kts | 357° |
| 2026-05-08 07:58 | 15.05242 | 121.06130 | 11936 ft | 379 kts | 357° |
| 2026-05-08 07:58 | 15.07883 | 121.05901 | 12248 ft | 383 kts | 356° |
| 2026-05-08 07:58 | 15.10546 | 121.05669 | 12602 ft | 385 kts | 357° |
| 2026-05-08 07:58 | 15.13223 | 121.05438 | 12929 ft | 387 kts | 358° |
| 2026-05-08 07:59 | 15.15874 | 121.05212 | 13275 ft | 389 kts | 357° |
| 2026-05-08 07:59 | 15.18582 | 121.04981 | 13568 ft | 392 kts | 357° |
| 2026-05-08 07:59 | 15.21308 | 121.04750 | 13863 ft | 394 kts | 358° |
| 2026-05-08 07:59 | 15.24048 | 121.04517 | 14152 ft | 396 kts | 359° |
| 2026-05-08 08:00 | 15.26800 | 121.04284 | 14462 ft | 398 kts | 359° |
| 2026-05-08 08:00 | 15.29568 | 121.04047 | 14774 ft | 399 kts | 358° |
| 2026-05-08 08:00 | 15.32340 | 121.03808 | 15067 ft | 401 kts | 357° |
| 2026-05-08 08:00 | 15.35131 | 121.03567 | 15371 ft | 402 kts | 356° |
| 2026-05-08 08:01 | 15.37895 | 121.03327 | 15642 ft | 405 kts | 357° |
| 2026-05-08 08:01 | 15.40709 | 121.03082 | 15927 ft | 406 kts | 356° |
| 2026-05-08 08:01 | 15.43531 | 121.02839 | 16203 ft | 408 kts | 357° |
| 2026-05-08 08:01 | 15.46370 | 121.02595 | 16482 ft | 409 kts | 357° |
| 2026-05-08 08:02 | 15.49010 | 121.02315 | 16703 ft | 413 kts | 353° |
| 2026-05-08 08:02 | 15.51848 | 121.01806 | 16964 ft | 415 kts | 351° |
| 2026-05-08 08:02 | 15.54698 | 121.01283 | 17222 ft | 417 kts | 351° |
| 2026-05-08 08:02 | 15.57564 | 121.00753 | 17486 ft | 419 kts | 351° |
| 2026-05-08 08:03 | 15.60441 | 121.00223 | 17736 ft | 421 kts | 352° |
| 2026-05-08 08:03 | 15.63330 | 120.99694 | 17987 ft | 423 kts | 352° |
| 2026-05-08 08:03 | 15.66237 | 120.99164 | 18227 ft | 424 kts | 351° |
| 2026-05-08 08:03 | 15.69144 | 120.98638 | 18484 ft | 425 kts | 351° |
| 2026-05-08 08:04 | 15.71853 | 120.98146 | 18691 ft | 426 kts | 351° |
| 2026-05-08 08:04 | 15.74745 | 120.97621 | 18917 ft | 427 kts | 351° |
| 2026-05-08 08:04 | 15.77676 | 120.97089 | 19136 ft | 428 kts | 351° |
| 2026-05-08 08:04 | 15.80616 | 120.96554 | 19355 ft | 430 kts | 351° |
| 2026-05-08 08:05 | 15.83565 | 120.96017 | 19586 ft | 431 kts | 350° |
| 2026-05-08 08:05 | 15.86530 | 120.95476 | 19800 ft | 433 kts | 351° |
| 2026-05-08 08:05 | 15.89501 | 120.94935 | 20023 ft | 434 kts | 350° |
| 2026-05-08 08:05 | 15.92483 | 120.94389 | 20254 ft | 436 kts | 350° |
| 2026-05-08 08:06 | 15.95470 | 120.93841 | 20482 ft | 437 kts | 350° |
| 2026-05-08 08:06 | 15.98471 | 120.93291 | 20726 ft | 438 kts | 350° |
| 2026-05-08 08:06 | 16.01485 | 120.92739 | 20951 ft | 440 kts | 350° |
| 2026-05-08 08:06 | 16.04503 | 120.92189 | 21158 ft | 441 kts | 350° |
| 2026-05-08 08:07 | 16.07532 | 120.91638 | 21372 ft | 443 kts | 350° |
| 2026-05-08 08:07 | 16.10540 | 120.91091 | 21581 ft | 445 kts | 350° |
| 2026-05-08 08:07 | 16.13591 | 120.90535 | 21780 ft | 446 kts | 349° |
| 2026-05-08 08:07 | 16.16653 | 120.89977 | 21983 ft | 447 kts | 349° |
| 2026-05-08 08:08 | 16.19728 | 120.89414 | 22187 ft | 449 kts | 349° |
| 2026-05-08 08:08 | 16.22813 | 120.88887 | 22410 ft | 450 kts | 354° |
| 2026-05-08 08:08 | 16.25943 | 120.88752 | 22617 ft | 451 kts | 358° |
| 2026-05-08 08:08 | 16.29088 | 120.88666 | 22822 ft | 452 kts | 358° |
| 2026-05-08 08:09 | 16.32244 | 120.88581 | 23019 ft | 454 kts | 358° |
| 2026-05-08 08:09 | 16.35404 | 120.88497 | 23224 ft | 455 kts | 358° |
| 2026-05-08 08:09 | 16.38578 | 120.88416 | 23424 ft | 457 kts | 358° |
| 2026-05-08 08:09 | 16.41757 | 120.88331 | 23592 ft | 458 kts | 358° |
| 2026-05-08 08:10 | 16.44949 | 120.88245 | 23793 ft | 459 kts | 358° |
| 2026-05-08 08:10 | 16.48149 | 120.88160 | 23975 ft | 460 kts | 358° |
| 2026-05-08 08:10 | 16.51354 | 120.88078 | 24165 ft | 461 kts | 358° |
| 2026-05-08 08:10 | 16.54565 | 120.87997 | 24360 ft | 462 kts | 358° |
| 2026-05-08 08:11 | 16.57780 | 120.87916 | 24559 ft | 462 kts | 358° |
| 2026-05-08 08:11 | 16.60957 | 120.87833 | 24761 ft | 463 kts | 358° |
| 2026-05-08 08:11 | 16.64174 | 120.87749 | 24964 ft | 463 kts | 358° |
| 2026-05-08 08:11 | 16.67397 | 120.87663 | 25158 ft | 464 kts | 358° |
| 2026-05-08 08:12 | 16.70622 | 120.87575 | 25356 ft | 464 kts | 358° |
| 2026-05-08 08:12 | 16.73855 | 120.87486 | 25530 ft | 465 kts | 358° |
| 2026-05-08 08:12 | 16.77100 | 120.87397 | 25695 ft | 466 kts | 358° |
| 2026-05-08 08:12 | 16.80349 | 120.87312 | 25872 ft | 467 kts | 358° |
| 2026-05-08 08:13 | 16.83597 | 120.87227 | 26076 ft | 467 kts | 358° |
| 2026-05-08 08:13 | 16.86847 | 120.87139 | 26220 ft | 468 kts | 358° |
| 2026-05-08 08:13 | 16.90105 | 120.87048 | 26368 ft | 469 kts | 358° |
| 2026-05-08 08:13 | 16.93368 | 120.86961 | 26515 ft | 470 kts | 359° |
| 2026-05-08 08:14 | 16.96637 | 120.86876 | 26683 ft | 470 kts | 359° |
| 2026-05-08 08:14 | 16.99901 | 120.86790 | 26852 ft | 469 kts | 359° |
| 2026-05-08 08:14 | 17.03170 | 120.86703 | 26990 ft | 470 kts | 359° |
| 2026-05-08 08:14 | 17.06445 | 120.86614 | 27114 ft | 471 kts | 358° |
| 2026-05-08 08:15 | 17.09682 | 120.86525 | 27251 ft | 471 kts | 359° |
| 2026-05-08 08:15 | 17.12958 | 120.86437 | 27412 ft | 471 kts | 359° |
| 2026-05-08 08:15 | 17.16231 | 120.86351 | 27626 ft | 469 kts | 359° |
| 2026-05-08 08:15 | 17.19495 | 120.86265 | 27789 ft | 468 kts | 359° |
| 2026-05-08 08:16 | 17.22750 | 120.86178 | 27970 ft | 468 kts | 359° |
| 2026-05-08 08:16 | 17.26013 | 120.86089 | 28115 ft | 468 kts | 359° |
| 2026-05-08 08:16 | 17.29267 | 120.85999 | 28293 ft | 467 kts | 359° |
| 2026-05-08 08:16 | 17.32501 | 120.85911 | 28535 ft | 464 kts | 359° |
| 2026-05-08 08:17 | 17.35733 | 120.85823 | 28698 ft | 464 kts | 359° |
| 2026-05-08 08:17 | 17.38962 | 120.85736 | 28862 ft | 464 kts | 359° |
| 2026-05-08 08:17 | 17.42149 | 120.85652 | 29003 ft | 464 kts | 359° |
| 2026-05-08 08:17 | 17.45378 | 120.85568 | 29184 ft | 464 kts | 359° |
| 2026-05-08 08:18 | 17.48603 | 120.85482 | 29363 ft | 463 kts | 359° |
| 2026-05-08 08:18 | 17.51825 | 120.85394 | 29497 ft | 464 kts | 358° |
| 2026-05-08 08:18 | 17.55053 | 120.85306 | 29635 ft | 464 kts | 358° |
| 2026-05-08 08:18 | 17.58283 | 120.85217 | 29776 ft | 464 kts | 358° |
| 2026-05-08 08:19 | 17.61507 | 120.85128 | 29938 ft | 464 kts | 358° |
| 2026-05-08 08:19 | 17.64734 | 120.85041 | 30098 ft | 463 kts | 358° |
| 2026-05-08 08:19 | 17.67954 | 120.84955 | 30222 ft | 463 kts | 359° |
| 2026-05-08 08:19 | 17.71172 | 120.84869 | 30355 ft | 463 kts | 359° |
| 2026-05-08 08:20 | 17.74391 | 120.84785 | 30479 ft | 463 kts | 358° |
| 2026-05-08 08:20 | 17.77610 | 120.84698 | 30611 ft | 462 kts | 358° |
| 2026-05-08 08:20 | 17.80821 | 120.84613 | 30758 ft | 461 kts | 358° |
| 2026-05-08 08:20 | 17.84026 | 120.84531 | 30869 ft | 460 kts | 359° |
| 2026-05-08 08:21 | 17.87222 | 120.84449 | 30897 ft | 459 kts | 359° |
| 2026-05-08 08:21 | 17.93555 | 120.84281 | 30894 ft | 458 kts | 358° |
| 2026-05-08 08:22 | 17.99920 | 120.84101 | 30890 ft | 457 kts | 358° |
| 2026-05-08 08:22 | 18.06282 | 120.83924 | 30889 ft | 458 kts | 358° |
| 2026-05-08 08:23 | 18.12666 | 120.83758 | 30884 ft | 458 kts | 358° |
| 2026-05-08 08:23 | 18.19049 | 120.83590 | 30884 ft | 458 kts | 358° |
| 2026-05-08 08:24 | 18.25426 | 120.83414 | 30881 ft | 459 kts | 358° |
| 2026-05-08 08:24 | 18.31767 | 120.83235 | 30886 ft | 459 kts | 358° |
| 2026-05-08 08:25 | 18.38155 | 120.83060 | 30878 ft | 459 kts | 358° |
| 2026-05-08 08:25 | 18.44540 | 120.82885 | 30882 ft | 459 kts | 358° |
| 2026-05-08 08:26 | 18.50922 | 120.82715 | 30885 ft | 459 kts | 358° |
| 2026-05-08 08:26 | 18.57305 | 120.82547 | 30886 ft | 459 kts | 358° |
| 2026-05-08 08:27 | 18.63643 | 120.82375 | 30878 ft | 459 kts | 358° |
| 2026-05-08 08:27 | 18.70025 | 120.82197 | 30880 ft | 459 kts | 358° |
| 2026-05-08 08:28 | 18.76405 | 120.82021 | 30881 ft | 459 kts | 358° |
| 2026-05-08 08:28 | 18.82789 | 120.81847 | 30881 ft | 459 kts | 358° |
| 2026-05-08 08:29 | 18.89176 | 120.81674 | 30884 ft | 459 kts | 358° |
| 2026-05-08 08:29 | 18.95556 | 120.81504 | 30888 ft | 459 kts | 358° |
| 2026-05-08 08:30 | 19.01945 | 120.81326 | 30886 ft | 459 kts | 358° |
| 2026-05-08 08:30 | 19.11481 | 120.81058 | 30895 ft | 458 kts | 358° |
| 2026-05-08 08:31 | 19.17858 | 120.80882 | 30889 ft | 458 kts | 358° |
| 2026-05-08 08:31 | 19.24235 | 120.80706 | 30898 ft | 458 kts | 358° |
| 2026-05-08 08:32 | 19.30617 | 120.80535 | 30897 ft | 458 kts | 358° |
| 2026-05-08 08:32 | 19.36958 | 120.80367 | 30899 ft | 458 kts | 358° |
| 2026-05-08 08:33 | 19.43340 | 120.80187 | 30902 ft | 458 kts | 358° |
| 2026-05-08 08:33 | 19.49722 | 120.80009 | 30898 ft | 458 kts | 358° |
| 2026-05-08 08:34 | 19.56097 | 120.79831 | 30907 ft | 458 kts | 358° |
| 2026-05-08 08:34 | 19.62476 | 120.79654 | 30901 ft | 459 kts | 357° |
| 2026-05-08 08:35 | 19.68821 | 120.79473 | 30902 ft | 459 kts | 358° |
| 2026-05-08 08:35 | 19.75214 | 120.79293 | 30898 ft | 459 kts | 358° |
| 2026-05-08 08:36 | 19.81608 | 120.79121 | 30908 ft | 459 kts | 358° |
| 2026-05-08 08:36 | 19.87996 | 120.78947 | 30907 ft | 459 kts | 357° |
| 2026-05-08 08:37 | 19.94346 | 120.78771 | 30910 ft | 460 kts | 357° |
| 2026-05-08 08:37 | 20.00749 | 120.78597 | 30908 ft | 460 kts | 357° |
| 2026-05-08 08:38 | 20.07152 | 120.78423 | 30910 ft | 460 kts | 357° |
| 2026-05-08 08:38 | 20.13553 | 120.78240 | 30922 ft | 460 kts | 357° |
| 2026-05-08 08:39 | 20.19958 | 120.78067 | 30913 ft | 460 kts | 357° |
| 2026-05-08 08:39 | 20.26368 | 120.77883 | 30914 ft | 461 kts | 357° |
| 2026-05-08 08:40 | 20.32778 | 120.77697 | 30913 ft | 461 kts | 357° |
| 2026-05-08 08:40 | 20.39189 | 120.77521 | 30915 ft | 461 kts | 357° |
| 2026-05-08 08:41 | 20.44520 | 120.77377 | 30919 ft | 461 kts | 357° |
| 2026-05-08 08:41 | 20.51994 | 120.77173 | 31170 ft | 463 kts | 357° |
| 2026-05-08 08:42 | 20.55214 | 120.77085 | 31285 ft | 463 kts | 356° |
| 2026-05-08 08:42 | 20.57389 | 120.77025 | 31380 ft | 462 kts | 356° |
| 2026-05-08 08:42 | 20.60604 | 120.76937 | 31531 ft | 462 kts | 356° |
| 2026-05-08 08:42 | 20.63769 | 120.76851 | 31685 ft | 461 kts | 356° |
| 2026-05-08 08:43 | 20.66968 | 120.76765 | 31849 ft | 459 kts | 356° |
| 2026-05-08 08:43 | 20.70168 | 120.76677 | 32013 ft | 458 kts | 356° |
| 2026-05-08 08:43 | 20.73353 | 120.76586 | 32198 ft | 457 kts | 356° |
| 2026-05-08 08:43 | 20.76523 | 120.76493 | 32393 ft | 454 kts | 356° |
| 2026-05-08 08:44 | 20.79680 | 120.76399 | 32573 ft | 453 kts | 356° |
| 2026-05-08 08:44 | 20.82826 | 120.76307 | 32756 ft | 451 kts | 356° |
| 2026-05-08 08:44 | 20.85967 | 120.76220 | 32889 ft | 451 kts | 356° |
| 2026-05-08 08:44 | 20.89059 | 120.76135 | 32916 ft | 450 kts | 356° |
| 2026-05-08 08:45 | 20.95312 | 120.75963 | 32918 ft | 449 kts | 356° |
| 2026-05-08 08:45 | 21.01521 | 120.75451 | 32922 ft | 445 kts | 345° |
| 2026-05-08 08:46 | 21.07542 | 120.73913 | 32920 ft | 445 kts | 345° |
| 2026-05-08 08:46 | 21.13570 | 120.72373 | 32921 ft | 445 kts | 345° |
| 2026-05-08 08:47 | 21.19597 | 120.70842 | 32926 ft | 445 kts | 345° |
| 2026-05-08 08:47 | 21.25624 | 120.69302 | 32929 ft | 445 kts | 345° |
| 2026-05-08 08:48 | 21.31652 | 120.67760 | 32945 ft | 445 kts | 344° |
| 2026-05-08 08:48 | 21.37676 | 120.66219 | 32943 ft | 445 kts | 344° |
| 2026-05-08 08:49 | 21.43664 | 120.64688 | 32941 ft | 445 kts | 344° |
| 2026-05-08 08:49 | 21.49686 | 120.63143 | 32940 ft | 445 kts | 344° |
| 2026-05-08 08:50 | 21.55703 | 120.61599 | 32944 ft | 445 kts | 344° |
| 2026-05-08 08:50 | 21.61719 | 120.60059 | 32945 ft | 445 kts | 344° |
| 2026-05-08 08:51 | 21.67741 | 120.58509 | 32945 ft | 445 kts | 344° |
| 2026-05-08 08:51 | 21.73756 | 120.56960 | 32944 ft | 445 kts | 344° |
| 2026-05-08 08:52 | 21.79780 | 120.55408 | 32947 ft | 445 kts | 344° |
| 2026-05-08 08:52 | 21.85797 | 120.53850 | 32948 ft | 445 kts | 344° |
| 2026-05-08 08:53 | 21.91782 | 120.52306 | 32960 ft | 445 kts | 344° |
| 2026-05-08 08:53 | 21.97812 | 120.50757 | 32952 ft | 445 kts | 344° |
| 2026-05-08 08:54 | 22.03841 | 120.49202 | 32950 ft | 445 kts | 343° |
| 2026-05-08 08:54 | 22.09870 | 120.47640 | 32950 ft | 446 kts | 344° |
| 2026-05-08 08:55 | 22.15900 | 120.46080 | 32948 ft | 446 kts | 344° |
| 2026-05-08 08:55 | 22.21937 | 120.44522 | 32948 ft | 446 kts | 344° |
| 2026-05-08 08:56 | 22.27963 | 120.42959 | 32951 ft | 446 kts | 343° |
| 2026-05-08 08:56 | 22.33995 | 120.41389 | 32952 ft | 446 kts | 343° |
| 2026-05-08 08:57 | 22.39989 | 120.39833 | 32947 ft | 446 kts | 344° |
| 2026-05-08 08:57 | 22.46018 | 120.38269 | 32944 ft | 446 kts | 343° |
| 2026-05-08 08:58 | 22.52053 | 120.36699 | 32942 ft | 446 kts | 343° |
| 2026-05-08 08:58 | 22.58090 | 120.35126 | 32938 ft | 446 kts | 343° |
| 2026-05-08 08:59 | 22.64131 | 120.33556 | 32935 ft | 446 kts | 343° |
| 2026-05-08 08:59 | 22.70170 | 120.31985 | 32933 ft | 446 kts | 343° |
| 2026-05-08 09:00 | 22.76208 | 120.30407 | 32935 ft | 447 kts | 343° |
| 2026-05-08 09:00 | 22.82210 | 120.28836 | 32961 ft | 447 kts | 342° |
| 2026-05-08 09:01 | 22.88258 | 120.27253 | 32966 ft | 447 kts | 342° |
| 2026-05-08 09:01 | 22.94313 | 120.25671 | 32966 ft | 447 kts | 342° |
| 2026-05-08 09:02 | 23.00363 | 120.24082 | 32965 ft | 448 kts | 342° |
| 2026-05-08 09:02 | 23.06420 | 120.22486 | 32965 ft | 447 kts | 342° |
| 2026-05-08 09:03 | 23.12571 | 120.21368 | 32971 ft | 454 kts | 355° |
| 2026-05-08 09:03 | 23.15737 | 120.21644 | 32971 ft | 460 kts | 6° |
| 2026-05-08 09:03 | 23.18846 | 120.22541 | 32972 ft | 465 kts | 14° |
| 2026-05-08 09:04 | 23.24945 | 120.24774 | 32974 ft | 465 kts | 13° |
| 2026-05-08 09:04 | 23.31085 | 120.26996 | 32975 ft | 465 kts | 13° |
| 2026-05-08 09:05 | 23.37224 | 120.29218 | 32992 ft | 465 kts | 13° |
| 2026-05-08 09:05 | 23.43366 | 120.31447 | 32988 ft | 465 kts | 13° |
| 2026-05-08 09:06 | 23.49514 | 120.33683 | 32986 ft | 466 kts | 13° |
| 2026-05-08 09:06 | 23.55617 | 120.35912 | 32984 ft | 466 kts | 13° |
| 2026-05-08 09:07 | 23.61767 | 120.38157 | 32991 ft | 466 kts | 13° |
| 2026-05-08 09:07 | 23.67921 | 120.40397 | 32990 ft | 466 kts | 13° |
| 2026-05-08 09:08 | 23.74075 | 120.42627 | 32988 ft | 466 kts | 13° |
| 2026-05-08 09:08 | 23.80234 | 120.44861 | 32988 ft | 466 kts | 13° |
| 2026-05-08 09:09 | 23.86390 | 120.47115 | 32986 ft | 466 kts | 13° |
| 2026-05-08 09:09 | 23.92308 | 120.50013 | 32976 ft | 478 kts | 28° |
| 2026-05-08 09:10 | 23.97709 | 120.54320 | 32980 ft | 481 kts | 31° |
| 2026-05-08 09:10 | 24.03091 | 120.58673 | 32985 ft | 481 kts | 31° |
| 2026-05-08 09:11 | 24.08488 | 120.63019 | 32989 ft | 481 kts | 31° |
| 2026-05-08 09:11 | 24.13883 | 120.67369 | 33000 ft | 482 kts | 31° |
| 2026-05-08 09:12 | 24.19283 | 120.71741 | 32995 ft | 482 kts | 31° |
| 2026-05-08 09:12 | 24.24642 | 120.76089 | 32993 ft | 482 kts | 31° |
| 2026-05-08 09:13 | 24.30042 | 120.80469 | 32997 ft | 482 kts | 31° |
| 2026-05-08 09:13 | 24.35433 | 120.84857 | 33016 ft | 483 kts | 31° |
| 2026-05-08 09:14 | 24.40837 | 120.89247 | 33014 ft | 483 kts | 31° |
| 2026-05-08 09:14 | 24.46246 | 120.93643 | 33013 ft | 483 kts | 31° |
| 2026-05-08 09:15 | 24.51609 | 120.98013 | 33025 ft | 483 kts | 31° |
| 2026-05-08 09:15 | 24.57001 | 121.02409 | 33040 ft | 482 kts | 31° |
| 2026-05-08 09:16 | 24.62388 | 121.06798 | 33009 ft | 481 kts | 31° |
| 2026-05-08 09:16 | 24.67769 | 121.11193 | 33021 ft | 482 kts | 31° |
| 2026-05-08 09:17 | 24.73156 | 121.15603 | 33018 ft | 483 kts | 31° |
| 2026-05-08 09:17 | 24.78514 | 121.19997 | 33025 ft | 483 kts | 31° |
| 2026-05-08 09:18 | 24.83904 | 121.24418 | 33014 ft | 483 kts | 31° |
| 2026-05-08 09:18 | 24.89300 | 121.28840 | 33017 ft | 483 kts | 31° |
| 2026-05-08 09:19 | 24.94694 | 121.33270 | 33036 ft | 483 kts | 31° |
| 2026-05-08 09:19 | 25.00081 | 121.37702 | 33044 ft | 483 kts | 31° |
| 2026-05-08 09:20 | 25.05463 | 121.42138 | 33055 ft | 483 kts | 31° |
| 2026-05-08 09:20 | 25.10821 | 121.46556 | 33045 ft | 484 kts | 31° |
| 2026-05-08 09:21 | 25.16213 | 121.51012 | 33043 ft | 484 kts | 33° |
| 2026-05-08 09:22 | 25.30005 | 121.67764 | 33039 ft | 494 kts | 44° |
| 2026-05-08 09:23 | 25.32268 | 121.70619 | 33048 ft | 494 kts | 44° |
| 2026-05-08 09:23 | 25.36798 | 121.76345 | 33044 ft | 495 kts | 44° |
| 2026-05-08 09:24 | 25.41294 | 121.82042 | 33042 ft | 495 kts | 44° |
| 2026-05-08 09:24 | 25.45813 | 121.87776 | 33060 ft | 495 kts | 43° |
| 2026-05-08 09:25 | 25.50342 | 121.93524 | 33071 ft | 496 kts | 43° |
| 2026-05-08 09:25 | 25.54878 | 121.99283 | 33081 ft | 496 kts | 43° |
| 2026-05-08 09:26 | 25.59410 | 122.05052 | 33077 ft | 497 kts | 43° |
| 2026-05-08 09:26 | 25.64473 | 122.10082 | 33092 ft | 484 kts | 28° |
| 2026-05-08 09:27 | 25.70000 | 122.14371 | 33093 ft | 485 kts | 28° |
| 2026-05-08 09:27 | 25.75535 | 122.18667 | 33072 ft | 486 kts | 28° |
| 2026-05-08 09:28 | 25.81072 | 122.22977 | 33078 ft | 486 kts | 28° |
| 2026-05-08 09:28 | 25.86606 | 122.27295 | 33103 ft | 486 kts | 28° |
| 2026-05-08 09:29 | 25.92108 | 122.31597 | 33086 ft | 487 kts | 28° |
| 2026-05-08 09:29 | 25.97661 | 122.35938 | 33089 ft | 487 kts | 28° |
| 2026-05-08 09:30 | 26.03206 | 122.40276 | 33090 ft | 488 kts | 28° |
| 2026-05-08 09:30 | 26.08758 | 122.44619 | 33108 ft | 488 kts | 28° |
| 2026-05-08 09:31 | 26.14305 | 122.48972 | 33102 ft | 488 kts | 28° |
| 2026-05-08 09:31 | 26.19811 | 122.53305 | 33098 ft | 488 kts | 28° |
| 2026-05-08 09:32 | 26.25355 | 122.57677 | 33101 ft | 488 kts | 28° |
| 2026-05-08 09:32 | 26.30898 | 122.62058 | 33119 ft | 488 kts | 28° |
| 2026-05-08 09:33 | 26.36444 | 122.66435 | 33109 ft | 489 kts | 28° |
| 2026-05-08 09:33 | 26.41999 | 122.70814 | 33107 ft | 489 kts | 28° |
| 2026-05-08 09:34 | 26.47545 | 122.75199 | 33107 ft | 489 kts | 28° |
| 2026-05-08 09:34 | 26.53090 | 122.79593 | 33120 ft | 489 kts | 28° |
| 2026-05-08 09:35 | 26.58636 | 122.83990 | 33113 ft | 489 kts | 28° |
| 2026-05-08 09:35 | 26.64193 | 122.88397 | 33115 ft | 490 kts | 28° |
| 2026-05-08 09:36 | 26.69753 | 122.92813 | 33115 ft | 490 kts | 28° |
| 2026-05-08 09:36 | 26.75319 | 122.97227 | 33133 ft | 491 kts | 28° |
| 2026-05-08 09:37 | 26.80889 | 123.01650 | 33122 ft | 491 kts | 28° |
| 2026-05-08 09:37 | 26.86416 | 123.06047 | 33117 ft | 491 kts | 28° |
| 2026-05-08 09:38 | 26.91980 | 123.10499 | 33122 ft | 491 kts | 28° |
| 2026-05-08 09:38 | 26.97538 | 123.14958 | 33122 ft | 491 kts | 28° |
| 2026-05-08 09:39 | 27.03104 | 123.19413 | 33119 ft | 491 kts | 28° |
| 2026-05-08 09:39 | 27.08663 | 123.23871 | 33127 ft | 491 kts | 28° |
| 2026-05-08 09:40 | 27.13280 | 123.27579 | 33124 ft | 491 kts | 28° |
| 2026-05-08 09:40 | 27.19729 | 123.32770 | 33140 ft | 491 kts | 28° |
| 2026-05-08 09:41 | 27.24385 | 123.36514 | 33137 ft | 491 kts | 28° |
| 2026-05-08 09:41 | 27.29933 | 123.40996 | 33129 ft | 491 kts | 28° |
| 2026-05-08 09:42 | 27.35448 | 123.45446 | 33151 ft | 491 kts | 28° |
| 2026-05-08 09:42 | 27.41009 | 123.49931 | 33142 ft | 492 kts | 28° |
| 2026-05-08 09:43 | 27.46565 | 123.54438 | 33134 ft | 492 kts | 28° |
| 2026-05-08 09:43 | 27.52124 | 123.58948 | 33131 ft | 493 kts | 28° |
| 2026-05-08 09:44 | 27.57687 | 123.63467 | 33161 ft | 493 kts | 28° |
| 2026-05-08 09:44 | 27.63256 | 123.68006 | 33149 ft | 494 kts | 29° |
| 2026-05-08 09:45 | 27.68688 | 123.72729 | 33140 ft | 497 kts | 31° |
| 2026-05-08 09:45 | 27.74085 | 123.77618 | 33144 ft | 497 kts | 32° |
| 2026-05-08 09:46 | 27.79489 | 123.82496 | 33154 ft | 497 kts | 31° |
| 2026-05-08 09:46 | 27.84928 | 123.87325 | 33147 ft | 497 kts | 31° |
| 2026-05-08 09:47 | 27.90377 | 123.92141 | 33144 ft | 497 kts | 31° |
| 2026-05-08 09:47 | 27.95794 | 123.96941 | 33136 ft | 498 kts | 31° |
| 2026-05-08 09:48 | 28.01239 | 124.01792 | 33155 ft | 498 kts | 31° |
| 2026-05-08 09:48 | 28.06684 | 124.06670 | 33146 ft | 499 kts | 31° |
| 2026-05-08 09:49 | 28.12130 | 124.11550 | 33149 ft | 499 kts | 31° |
| 2026-05-08 09:49 | 28.17551 | 124.16407 | 33146 ft | 499 kts | 31° |
| 2026-05-08 09:50 | 28.22998 | 124.21287 | 33137 ft | 499 kts | 31° |
| 2026-05-08 09:50 | 28.28442 | 124.26174 | 33133 ft | 499 kts | 31° |
| 2026-05-08 09:51 | 28.33896 | 124.31067 | 33137 ft | 500 kts | 31° |
| 2026-05-08 09:51 | 28.39348 | 124.35975 | 33165 ft | 500 kts | 31° |
| 2026-05-08 09:52 | 28.44763 | 124.40871 | 33164 ft | 501 kts | 31° |
| 2026-05-08 09:52 | 28.50218 | 124.45807 | 33152 ft | 501 kts | 31° |
| 2026-05-08 09:53 | 28.55673 | 124.50743 | 33168 ft | 501 kts | 31° |
| 2026-05-08 09:53 | 28.61134 | 124.55686 | 33162 ft | 502 kts | 31° |
| 2026-05-08 09:54 | 28.66604 | 124.60633 | 33157 ft | 502 kts | 31° |
| 2026-05-08 09:54 | 28.72079 | 124.65590 | 33156 ft | 502 kts | 31° |
| 2026-05-08 09:55 | 28.77691 | 124.70143 | 33173 ft | 491 kts | 20° |
| 2026-05-08 09:55 | 28.83918 | 124.72969 | 33162 ft | 479 kts | 10° |
| 2026-05-08 09:56 | 28.90231 | 124.75456 | 33148 ft | 480 kts | 11° |
| 2026-05-08 09:56 | 28.96551 | 124.77977 | 33152 ft | 481 kts | 11° |
| 2026-05-08 09:57 | 29.06031 | 124.81772 | 33155 ft | 481 kts | 11° |
| 2026-05-08 09:57 | 29.12359 | 124.84304 | 33161 ft | 482 kts | 11° |
| 2026-05-08 09:58 | 29.18685 | 124.86830 | 33188 ft | 482 kts | 11° |
| 2026-05-08 09:58 | 29.24975 | 124.89338 | 33180 ft | 482 kts | 11° |
| 2026-05-08 09:59 | 29.31309 | 124.91883 | 33174 ft | 482 kts | 11° |
| 2026-05-08 09:59 | 29.37646 | 124.94438 | 33214 ft | 483 kts | 11° |
| 2026-05-08 10:00 | 29.43975 | 124.96991 | 33159 ft | 481 kts | 11° |
| 2026-05-08 10:00 | 29.50309 | 124.99533 | 33151 ft | 482 kts | 11° |
| 2026-05-08 10:01 | 29.56643 | 125.02082 | 33161 ft | 482 kts | 11° |
| 2026-05-08 10:01 | 29.62973 | 125.04645 | 33188 ft | 483 kts | 11° |
| 2026-05-08 10:02 | 29.69309 | 125.07205 | 33184 ft | 483 kts | 11° |
| 2026-05-08 10:02 | 29.75606 | 125.09747 | 33184 ft | 483 kts | 11° |
| 2026-05-08 10:03 | 29.81949 | 125.12316 | 33178 ft | 483 kts | 11° |
| 2026-05-08 10:03 | 29.88289 | 125.14901 | 33165 ft | 483 kts | 11° |
| 2026-05-08 10:04 | 29.94630 | 125.17488 | 33168 ft | 483 kts | 11° |
| 2026-05-08 10:04 | 30.00936 | 125.20056 | 33193 ft | 484 kts | 12° |
| 2026-05-08 10:05 | 30.07291 | 125.22644 | 33173 ft | 485 kts | 12° |
| 2026-05-08 10:05 | 30.13654 | 125.25249 | 33166 ft | 486 kts | 12° |
| 2026-05-08 10:06 | 30.20043 | 125.27871 | 33165 ft | 487 kts | 12° |
| 2026-05-08 10:06 | 30.26443 | 125.30488 | 33171 ft | 489 kts | 12° |
| 2026-05-08 10:07 | 30.32873 | 125.33127 | 33157 ft | 491 kts | 12° |
| 2026-05-08 10:07 | 30.39275 | 125.35762 | 33158 ft | 492 kts | 12° |
| 2026-05-08 10:08 | 30.45773 | 125.38444 | 33190 ft | 493 kts | 12° |
| 2026-05-08 10:08 | 30.52190 | 125.41105 | 33188 ft | 493 kts | 12° |
| 2026-05-08 10:09 | 30.58655 | 125.43780 | 33185 ft | 493 kts | 12° |
| 2026-05-08 10:09 | 30.65117 | 125.46454 | 33175 ft | 492 kts | 12° |
| 2026-05-08 10:10 | 30.71558 | 125.49122 | 33174 ft | 491 kts | 12° |
| 2026-05-08 10:10 | 30.77996 | 125.51783 | 33151 ft | 492 kts | 12° |
| 2026-05-08 10:11 | 30.84413 | 125.54455 | 33187 ft | 493 kts | 12° |
| 2026-05-08 10:11 | 30.90872 | 125.57155 | 33185 ft | 493 kts | 12° |
| 2026-05-08 10:12 | 30.97336 | 125.59853 | 33188 ft | 493 kts | 12° |
| 2026-05-08 10:12 | 31.03802 | 125.62542 | 33188 ft | 493 kts | 12° |
| 2026-05-08 10:13 | 31.10268 | 125.65240 | 33182 ft | 493 kts | 12° |
| 2026-05-08 10:13 | 31.16727 | 125.67949 | 33185 ft | 493 kts | 12° |
| 2026-05-08 10:14 | 31.23196 | 125.70660 | 33221 ft | 493 kts | 13° |
| 2026-05-08 10:14 | 31.29587 | 125.73346 | 33174 ft | 491 kts | 13° |
| 2026-05-08 10:15 | 31.36016 | 125.76049 | 33154 ft | 491 kts | 12° |
| 2026-05-08 10:15 | 31.42453 | 125.78749 | 33158 ft | 492 kts | 12° |
| 2026-05-08 10:16 | 31.48900 | 125.81466 | 33185 ft | 492 kts | 13° |
| 2026-05-08 10:16 | 31.55338 | 125.84197 | 33185 ft | 492 kts | 13° |
| 2026-05-08 10:17 | 31.61784 | 125.86916 | 33186 ft | 492 kts | 13° |
| 2026-05-08 10:17 | 31.68219 | 125.89621 | 33173 ft | 490 kts | 13° |
| 2026-05-08 10:18 | 31.74595 | 125.92298 | 33175 ft | 490 kts | 12° |
| 2026-05-08 10:18 | 31.81018 | 125.94996 | 33180 ft | 490 kts | 13° |
| 2026-05-08 10:19 | 31.87424 | 125.97707 | 33179 ft | 487 kts | 13° |
| 2026-05-08 10:20 | 31.96939 | 126.01747 | 33177 ft | 487 kts | 13° |
| 2026-05-08 10:20 | 32.03310 | 126.04447 | 33213 ft | 487 kts | 12° |
| 2026-05-08 10:21 | 32.09689 | 126.07141 | 33192 ft | 487 kts | 12° |
| 2026-05-08 10:21 | 32.16061 | 126.09845 | 33186 ft | 487 kts | 12° |
| 2026-05-08 10:22 | 32.22434 | 126.12554 | 33208 ft | 486 kts | 12° |
| 2026-05-08 10:22 | 32.28793 | 126.15264 | 33170 ft | 485 kts | 12° |
| 2026-05-08 10:23 | 32.35146 | 126.17964 | 33173 ft | 485 kts | 12° |
| 2026-05-08 10:23 | 32.41506 | 126.20663 | 33209 ft | 486 kts | 12° |
| 2026-05-08 10:24 | 32.47830 | 126.23350 | 33194 ft | 486 kts | 12° |
| 2026-05-08 10:24 | 32.54196 | 126.26078 | 33172 ft | 487 kts | 12° |
| 2026-05-08 10:25 | 32.60567 | 126.28818 | 33212 ft | 487 kts | 12° |
| 2026-05-08 10:25 | 32.66931 | 126.31550 | 33169 ft | 486 kts | 11° |
| 2026-05-08 10:26 | 32.73307 | 126.34294 | 33171 ft | 487 kts | 11° |
| 2026-05-08 10:26 | 32.79684 | 126.37032 | 33200 ft | 487 kts | 11° |
| 2026-05-08 10:27 | 32.86012 | 126.39764 | 33189 ft | 487 kts | 11° |
| 2026-05-08 10:27 | 32.92378 | 126.42519 | 33184 ft | 486 kts | 11° |
| 2026-05-08 10:28 | 32.98736 | 126.45283 | 33171 ft | 486 kts | 11° |
| 2026-05-08 10:28 | 33.05096 | 126.48027 | 33166 ft | 486 kts | 11° |
| 2026-05-08 10:29 | 33.11461 | 126.50751 | 33158 ft | 486 kts | 11° |
| 2026-05-08 10:29 | 33.17837 | 126.53477 | 33204 ft | 487 kts | 10° |
| 2026-05-08 10:30 | 33.24165 | 126.56207 | 33188 ft | 486 kts | 11° |
| 2026-05-08 10:30 | 33.30530 | 126.58962 | 33183 ft | 486 kts | 11° |
| 2026-05-08 10:31 | 33.36882 | 126.61718 | 33185 ft | 485 kts | 10° |
| 2026-05-08 10:31 | 33.43207 | 126.64463 | 33168 ft | 483 kts | 10° |
| 2026-05-08 10:32 | 33.49527 | 126.67216 | 33167 ft | 484 kts | 10° |
| 2026-05-08 10:32 | 33.55880 | 126.69695 | 33173 ft | 471 kts | 0° |
| 2026-05-08 10:32 | 33.59075 | 126.70210 | 33157 ft | 458 kts | 354° |
| 2026-05-08 10:33 | 33.62255 | 126.70532 | 33157 ft | 459 kts | 354° |
| 2026-05-08 10:33 | 33.68624 | 126.71183 | 33159 ft | 460 kts | 354° |
| 2026-05-08 10:34 | 33.74969 | 126.71855 | 33204 ft | 460 kts | 354° |
| 2026-05-08 10:34 | 33.81326 | 126.72533 | 33151 ft | 458 kts | 353° |
| 2026-05-08 10:35 | 33.87671 | 126.73196 | 33150 ft | 458 kts | 353° |
| 2026-05-08 10:35 | 33.94027 | 126.73860 | 33151 ft | 458 kts | 353° |
| 2026-05-08 10:36 | 34.00365 | 126.74523 | 33143 ft | 456 kts | 353° |
| 2026-05-08 10:36 | 34.06705 | 126.75182 | 33131 ft | 458 kts | 353° |
| 2026-05-08 10:37 | 34.13012 | 126.75851 | 33130 ft | 458 kts | 353° |
| 2026-05-08 10:37 | 34.19351 | 126.76520 | 33123 ft | 456 kts | 352° |
| 2026-05-08 10:38 | 34.25682 | 126.77188 | 33125 ft | 456 kts | 353° |
| 2026-05-08 10:38 | 34.32003 | 126.77852 | 33126 ft | 456 kts | 352° |
| 2026-05-08 10:39 | 34.38335 | 126.78518 | 33139 ft | 456 kts | 352° |
| 2026-05-08 10:39 | 34.44666 | 126.79194 | 33134 ft | 457 kts | 352° |
| 2026-05-08 10:40 | 34.50956 | 126.79863 | 33135 ft | 457 kts | 352° |
| 2026-05-08 10:40 | 34.57301 | 126.80539 | 33135 ft | 458 kts | 352° |
| 2026-05-08 10:41 | 34.63636 | 126.81223 | 33118 ft | 457 kts | 352° |
| 2026-05-08 10:41 | 34.69979 | 126.81904 | 33117 ft | 458 kts | 352° |
| 2026-05-08 10:42 | 34.75254 | 126.82471 | 33139 ft | 458 kts | 352° |
| 2026-05-08 10:42 | 34.81612 | 126.83150 | 33144 ft | 458 kts | 352° |
| 2026-05-08 10:43 | 34.87961 | 126.83828 | 33128 ft | 458 kts | 352° |
| 2026-05-08 10:43 | 34.95353 | 126.84627 | 33123 ft | 458 kts | 352° |
| 2026-05-08 10:44 | 35.00680 | 126.85206 | 33132 ft | 459 kts | 352° |
| 2026-05-08 10:44 | 35.07042 | 126.85900 | 33136 ft | 459 kts | 352° |
| 2026-05-08 10:45 | 35.13370 | 126.86587 | 33135 ft | 459 kts | 352° |
| 2026-05-08 10:45 | 35.19719 | 126.87276 | 33102 ft | 456 kts | 352° |
| 2026-05-08 10:46 | 35.26039 | 126.87955 | 33106 ft | 456 kts | 352° |
| 2026-05-08 10:46 | 35.32373 | 126.88639 | 33112 ft | 457 kts | 351° |
| 2026-05-08 10:47 | 35.38676 | 126.89322 | 33139 ft | 458 kts | 352° |
| 2026-05-08 10:47 | 35.45025 | 126.90026 | 33133 ft | 458 kts | 351° |
| 2026-05-08 10:48 | 35.51367 | 126.90718 | 33127 ft | 457 kts | 351° |
| 2026-05-08 10:48 | 35.57699 | 126.91408 | 33097 ft | 453 kts | 351° |
| 2026-05-08 10:49 | 35.63965 | 126.92106 | 33087 ft | 452 kts | 351° |
| 2026-05-08 10:49 | 35.70234 | 126.92781 | 33090 ft | 453 kts | 350° |
| 2026-05-08 10:49 | 35.73374 | 126.93118 | 32899 ft | 453 kts | 350° |
| 2026-05-08 10:50 | 35.76513 | 126.93462 | 32643 ft | 452 kts | 350° |
| 2026-05-08 10:50 | 35.79650 | 126.93815 | 32384 ft | 452 kts | 350° |
| 2026-05-08 10:50 | 35.82782 | 126.94168 | 31730 ft | 453 kts | 351° |
| 2026-05-08 10:50 | 35.85933 | 126.94513 | 30847 ft | 455 kts | 351° |
| 2026-05-08 10:51 | 35.89102 | 126.94855 | 29882 ft | 459 kts | 351° |
| 2026-05-08 10:51 | 35.92250 | 126.95193 | 28805 ft | 462 kts | 352° |
| 2026-05-08 10:51 | 35.95445 | 126.95545 | 28048 ft | 458 kts | 352° |
| 2026-05-08 10:51 | 35.98589 | 126.95908 | 27443 ft | 450 kts | 353° |
| 2026-05-08 10:52 | 36.01685 | 126.96267 | 26785 ft | 444 kts | 353° |
| 2026-05-08 10:52 | 36.04738 | 126.96618 | 26145 ft | 438 kts | 353° |
| 2026-05-08 10:52 | 36.07761 | 126.96956 | 25507 ft | 433 kts | 354° |
| 2026-05-08 10:52 | 36.10753 | 126.97288 | 24871 ft | 429 kts | 354° |
| 2026-05-08 10:53 | 36.13710 | 126.97616 | 24256 ft | 425 kts | 355° |
| 2026-05-08 10:53 | 36.16643 | 126.97941 | 23606 ft | 421 kts | 355° |
| 2026-05-08 10:53 | 36.19539 | 126.98260 | 22932 ft | 415 kts | 355° |
| 2026-05-08 10:53 | 36.22390 | 126.98577 | 22342 ft | 407 kts | 356° |
| 2026-05-08 10:54 | 36.25152 | 126.98884 | 21754 ft | 400 kts | 356° |
| 2026-05-08 10:54 | 36.27897 | 126.99189 | 21197 ft | 392 kts | 356° |
| 2026-05-08 10:54 | 36.30597 | 126.99484 | 20654 ft | 386 kts | 355° |
| 2026-05-08 10:54 | 36.33248 | 126.99769 | 20136 ft | 379 kts | 356° |
| 2026-05-08 10:55 | 36.35857 | 127.00052 | 19631 ft | 373 kts | 357° |
| 2026-05-08 10:55 | 36.38422 | 127.00322 | 19143 ft | 365 kts | 355° |
| 2026-05-08 10:55 | 36.40919 | 127.00293 | 18657 ft | 356 kts | 352° |
| 2026-05-08 10:55 | 36.43375 | 127.00207 | 18165 ft | 350 kts | 352° |
| 2026-05-08 10:56 | 36.45784 | 127.00119 | 17675 ft | 343 kts | 352° |
| 2026-05-08 10:56 | 36.48142 | 127.00032 | 17206 ft | 335 kts | 352° |
| 2026-05-08 10:56 | 36.50450 | 126.99950 | 16773 ft | 329 kts | 352° |
| 2026-05-08 10:56 | 36.52723 | 126.99866 | 16290 ft | 324 kts | 353° |
| 2026-05-08 10:57 | 36.54959 | 126.99784 | 15815 ft | 319 kts | 353° |
| 2026-05-08 10:57 | 36.57128 | 126.99702 | 15344 ft | 314 kts | 354° |
| 2026-05-08 10:57 | 36.61429 | 126.99542 | 14695 ft | 298 kts | 353° |
| 2026-05-08 10:58 | 36.63452 | 126.99475 | 14563 ft | 284 kts | 353° |
| 2026-05-08 10:58 | 36.65388 | 126.99408 | 14381 ft | 273 kts | 353° |
| 2026-05-08 10:58 | 36.67271 | 126.99339 | 14122 ft | 268 kts | 353° |
| 2026-05-08 10:58 | 36.69125 | 126.99268 | 13896 ft | 265 kts | 353° |
| 2026-05-08 10:59 | 36.70969 | 126.99196 | 13958 ft | 266 kts | 354° |
| 2026-05-08 10:59 | 36.72792 | 126.99116 | 13951 ft | 256 kts | 349° |
| 2026-05-08 10:59 | 36.74549 | 126.98646 | 13902 ft | 261 kts | 337° |
| 2026-05-08 10:59 | 36.76226 | 126.97777 | 13720 ft | 261 kts | 334° |
| 2026-05-08 11:00 | 36.77900 | 126.96891 | 13536 ft | 262 kts | 335° |
| 2026-05-08 11:00 | 36.79555 | 126.96022 | 13370 ft | 261 kts | 335° |
| 2026-05-08 11:00 | 36.81229 | 126.95143 | 13202 ft | 261 kts | 335° |
| 2026-05-08 11:00 | 36.82900 | 126.94260 | 13036 ft | 261 kts | 335° |
| 2026-05-08 11:01 | 36.84569 | 126.93382 | 12871 ft | 260 kts | 335° |
| 2026-05-08 11:01 | 36.86237 | 126.92503 | 12701 ft | 260 kts | 335° |
| 2026-05-08 11:01 | 36.87902 | 126.91623 | 12533 ft | 260 kts | 335° |
| 2026-05-08 11:01 | 36.89564 | 126.90741 | 12367 ft | 260 kts | 335° |
| 2026-05-08 11:02 | 36.91228 | 126.89862 | 12205 ft | 260 kts | 335° |
| 2026-05-08 11:02 | 36.94507 | 126.87988 | 11768 ft | 260 kts | 329° |
| 2026-05-08 11:02 | 36.96083 | 126.86870 | 11318 ft | 260 kts | 329° |
| 2026-05-08 11:03 | 36.97651 | 126.85754 | 10895 ft | 259 kts | 329° |
| 2026-05-08 11:03 | 36.99216 | 126.84640 | 10481 ft | 258 kts | 329° |
| 2026-05-08 11:03 | 37.00762 | 126.83543 | 10073 ft | 258 kts | 330° |
| 2026-05-08 11:03 | 37.02321 | 126.82436 | 9638 ft | 258 kts | 330° |
| 2026-05-08 11:04 | 37.03877 | 126.81329 | 9248 ft | 257 kts | 330° |
| 2026-05-08 11:04 | 37.05425 | 126.80226 | 8833 ft | 255 kts | 330° |
| 2026-05-08 11:04 | 37.06970 | 126.79125 | 8424 ft | 254 kts | 330° |
| 2026-05-08 11:04 | 37.08507 | 126.78027 | 8014 ft | 254 kts | 330° |
| 2026-05-08 11:05 | 37.10043 | 126.76929 | 7592 ft | 254 kts | 330° |
| 2026-05-08 11:05 | 37.11580 | 126.75832 | 7254 ft | 252 kts | 330° |
| 2026-05-08 11:05 | 37.13059 | 126.74777 | 7197 ft | 238 kts | 330° |
| 2026-05-08 11:05 | 37.14462 | 126.73778 | 7117 ft | 228 kts | 330° |
| 2026-05-08 11:06 | 37.15774 | 126.72721 | 7040 ft | 227 kts | 320° |
| 2026-05-08 11:06 | 37.16789 | 126.71188 | 6790 ft | 233 kts | 303° |
| 2026-05-08 11:06 | 37.17607 | 126.69443 | 6477 ft | 231 kts | 303° |
| 2026-05-08 11:06 | 37.18425 | 126.67718 | 6161 ft | 229 kts | 305° |
| 2026-05-08 11:07 | 37.19468 | 126.66251 | 5874 ft | 225 kts | 322° |
| 2026-05-08 11:07 | 37.20714 | 126.65078 | 5573 ft | 224 kts | 326° |
| 2026-05-08 11:07 | 37.21988 | 126.63963 | 5293 ft | 223 kts | 326° |
| 2026-05-08 11:07 | 37.23256 | 126.62850 | 5004 ft | 222 kts | 326° |
| 2026-05-08 11:08 | 37.24515 | 126.61739 | 4712 ft | 221 kts | 326° |
| 2026-05-08 11:08 | 37.25767 | 126.60633 | 4404 ft | 220 kts | 326° |
| 2026-05-08 11:08 | 37.27014 | 126.59531 | 4132 ft | 219 kts | 326° |
| 2026-05-08 11:08 | 37.28252 | 126.58436 | 3866 ft | 215 kts | 326° |
| 2026-05-08 11:09 | 37.29460 | 126.57368 | 3577 ft | 210 kts | 325° |
| 2026-05-08 11:09 | 37.30634 | 126.56330 | 3296 ft | 204 kts | 325° |
| 2026-05-08 11:09 | 37.31778 | 126.55318 | 3040 ft | 199 kts | 325° |
| 2026-05-08 11:09 | 37.32889 | 126.54333 | 2795 ft | 190 kts | 325° |
| 2026-05-08 11:10 | 37.33928 | 126.53413 | 2538 ft | 180 kts | 325° |
| 2026-05-08 11:10 | 37.34926 | 126.52529 | 2311 ft | 171 kts | 324° |
| 2026-05-08 11:10 | 37.35874 | 126.51689 | 2089 ft | 161 kts | 325° |
| 2026-05-08 11:10 | 37.36755 | 126.50908 | 1881 ft | 149 kts | 324° |
| 2026-05-08 11:11 | 37.37585 | 126.50173 | 1701 ft | 143 kts | 324° |
| 2026-05-08 11:11 | 37.38392 | 126.49457 | 1495 ft | 141 kts | 324° |
| 2026-05-08 11:11 | 37.39192 | 126.48747 | 1301 ft | 141 kts | 323° |
| 2026-05-08 11:11 | 37.39991 | 126.48038 | 1108 ft | 140 kts | 323° |
| 2026-05-08 11:12 | 37.40787 | 126.47331 | 923 ft | 140 kts | 323° |
| 2026-05-08 11:12 | 37.41583 | 126.46624 | 732 ft | 139 kts | 322° |
| 2026-05-08 11:12 | 37.42374 | 126.45922 | 548 ft | 139 kts | 322° |
| 2026-05-08 11:12 | 37.43172 | 126.45213 | 365 ft | 142 kts | 322° |
| 2026-05-08 11:13 | 37.43976 | 126.44501 | 199 ft | 141 kts | 323° |
| 2026-05-08 11:13 | 37.44771 | 126.43789 | 35 ft | 137 kts | 323° |
| 2026-05-08 11:13 | 37.45434 | 126.43201 | 32 ft | 93 kts | 324° |
| 2026-05-08 11:13 | 37.45808 | 126.42867 | 33 ft | 34 kts | 325° |
| 2026-05-08 11:14 | 37.45943 | 126.42763 | 33 ft | 18 kts | 333° |
| 2026-05-08 11:14 | 37.46052 | 126.42726 | 33 ft | 16 kts | 349° |
| 2026-05-08 11:14 | 37.46128 | 126.42716 | 32 ft | 8 kts | 355° |
| 2026-05-08 11:14 | 37.46175 | 126.42756 | 33 ft | 9 kts | 65° |
| 2026-05-08 11:15 | 37.46153 | 126.42827 | 32 ft | 10 kts | 139° |
| 2026-05-08 11:15 | 37.46094 | 126.42881 | 33 ft | 11 kts | 144° |
| 2026-05-08 11:15 | 37.46028 | 126.42941 | 33 ft | 12 kts | 144° |
| 2026-05-08 11:15 | 37.45955 | 126.43007 | 33 ft | 14 kts | 144° |
| 2026-05-08 11:16 | 37.45875 | 126.43078 | 33 ft | 15 kts | 146° |
| 2026-05-08 11:16 | 37.45788 | 126.43153 | 32 ft | 16 kts | 146° |
| 2026-05-08 11:16 | 37.45702 | 126.43229 | 32 ft | 13 kts | 144° |
| 2026-05-08 11:16 | 37.45624 | 126.43299 | 33 ft | 14 kts | 144° |
| 2026-05-08 11:17 | 37.45544 | 126.43371 | 33 ft | 13 kts | 145° |
| 2026-05-08 11:17 | 37.45469 | 126.43437 | 33 ft | 12 kts | 144° |
| 2026-05-08 11:17 | 37.45399 | 126.43499 | 33 ft | 12 kts | 144° |
| 2026-05-08 11:17 | 37.45331 | 126.43561 | 33 ft | 11 kts | 144° |
| 2026-05-08 11:18 | 37.45295 | 126.43641 | 33 ft | 12 kts | 72° |
| 2026-05-08 11:18 | 37.45342 | 126.43726 | 33 ft | 11 kts | 55° |
| 2026-05-08 11:18 | 37.45391 | 126.43809 | 32 ft | 12 kts | 51° |
| 2026-05-08 11:18 | 37.45446 | 126.43898 | 33 ft | 12 kts | 54° |
| 2026-05-08 11:19 | 37.45482 | 126.43960 | 33 ft | 8 kts | 54° |
| 2026-05-08 11:19 | 37.45516 | 126.44021 | 33 ft | 9 kts | 54° |
| 2026-05-08 11:19 | 37.45555 | 126.44089 | 33 ft | 3 kts | 55° |
| 2026-05-08 11:19 | 37.45564 | 126.44106 | 33 ft | 3 kts | 55° |
| 2026-05-08 11:20 | 37.45579 | 126.44133 | 33 ft | 5 kts | 55° |
| 2026-05-08 11:20 | 37.45600 | 126.44171 | 33 ft | 6 kts | 54° |
| 2026-05-08 11:20 | 37.45627 | 126.44219 | 33 ft | 7 kts | 54° |
| 2026-05-08 11:20 | 37.45659 | 126.44275 | 33 ft | 9 kts | 54° |
| 2026-05-08 11:21 | 37.45697 | 126.44343 | 33 ft | 10 kts | 54° |
| 2026-05-08 11:21 | 37.45736 | 126.44412 | 31 ft | 11 kts | 54° |
| 2026-05-08 11:21 | 37.45784 | 126.44498 | 33 ft | 13 kts | 54° |
| 2026-05-08 11:21 | 37.45838 | 126.44594 | 33 ft | 14 kts | 54° |
| 2026-05-08 11:22 | 37.45885 | 126.44676 | 33 ft | 0 kts | 54° |
| 2026-05-08 11:22 | 37.45888 | 126.44684 | 33 ft | 1 kts | 65° |
| 2026-05-08 11:22 | 37.45887 | 126.44701 | 33 ft | 2 kts | 104° |
| 2026-05-08 11:22 | 37.45873 | 126.44718 | 33 ft | 3 kts | 150° |
| 2026-05-08 11:23 | 37.45847 | 126.44735 | 32 ft | 5 kts | 146° |
| 2026-05-08 11:23 | 37.45829 | 126.44752 | 33 ft | 0 kts | 144° |